sensor_id;sensor_type;location;lat;lon;timestamp;P1;durP1;ratioP1;P2;durP2;ratioP2
19808;SDS011;48538;32.784;-96.802;2023-05-16T00:02:02;8.73;;;2.85;;
19808;SDS011;48538;32.784;-96.802;2023-05-16T00:04:29;5.60;;;2.88;;
19808;SDS011;48538;32.784;-96.802;2023-05-16T00:06:57;5.15;;;3.45;;
19808;SDS011;48538;32.784;-96.802;2023-05-16T00:09:23;4.95;;;3.13;;
19808;SDS011;48538;32.784;-96.802;2023-05-16T00:11:49;7.03;;;3.55;;
19808;SDS011;48538;32.784;-96.802;2023-05-16T00:14:16;8.10;;;3.40;;
19808;SDS011;48538;32.784;-96.802;2023-05-16T00:16:44;4.75;;;3.47;;
19808;SDS011;48538;32.784;-96.802;2023-05-16T00:19:11;8.23;;;3.38;;
19808;SDS011;48538;32.784;-96.802;2023-05-16T00:21:37;8.63;;;3.47;;
19808;SDS011;48538;32.784;-96.802;2023-05-16T00:24:04;5.30;;;3.72;;
19808;SDS011;48538;32.784;-96.802;2023-05-16T00:26:31;8.98;;;4.57;;
19808;SDS011;48538;32.784;-96.802;2023-05-16T00:28:57;7.88;;;4.43;;
19808;SDS011;48538;32.784;-96.802;2023-05-16T00:31:23;9.55;;;3.80;;
19808;SDS011;48538;32.784;-96.802;2023-05-16T00:33:49;7.85;;;4.68;;
19808;SDS011;48538;32.784;-96.802;2023-05-16T00:36:16;6.70;;;3.80;;
19808;SDS011;48538;32.784;-96.802;2023-05-16T00:38:42;13.50;;;4.10;;
19808;SDS011;48538;32.784;-96.802;2023-05-16T00:41:08;4.60;;;3.28;;
19808;SDS011;48538;32.784;-96.802;2023-05-16T00:43:35;6.40;;;3.65;;
19808;SDS011;48538;32.784;-96.802;2023-05-16T00:46:01;6.97;;;3.40;;
19808;SDS011;48538;32.784;-96.802;2023-05-16T00:48:28;5.15;;;3.13;;
19808;SDS011;48538;32.784;-96.802;2023-05-16T00:50:57;6.50;;;3.50;;
19808;SDS011;48538;32.784;-96.802;2023-05-16T00:53:24;5.72;;;3.50;;
19808;SDS011;48538;32.784;-96.802;2023-05-16T00:56:00;5.43;;;3.20;;
19808;SDS011;48538;32.784;-96.802;2023-05-16T00:58:28;3.75;;;3.00;;
19808;SDS011;48538;32.784;-96.802;2023-05-16T01:00:56;6.18;;;3.40;;
19808;SDS011;48538;32.784;-96.802;2023-05-16T01:03:23;5.22;;;3.10;;
19808;SDS011;48538;32.784;-96.802;2023-05-16T01:05:49;4.50;;;3.10;;
19808;SDS011;48538;32.784;-96.802;2023-05-16T01:08:16;7.43;;;3.20;;
19808;SDS011;48538;32.784;-96.802;2023-05-16T01:10:52;3.63;;;2.83;;
19808;SDS011;48538;32.784;-96.802;2023-05-16T01:16:12;3.92;;;3.22;;
19808;SDS011;48538;32.784;-96.802;2023-05-16T01:21:49;3.90;;;3.03;;
19808;SDS011;48538;32.784;-96.802;2023-05-16T01:25:04;4.65;;;3.60;;
19808;SDS011;48538;32.784;-96.802;2023-05-16T01:27:45;5.13;;;3.13;;
19808;SDS011;48538;32.784;-96.802;2023-05-16T01:30:13;5.00;;;3.70;;
19808;SDS011;48538;32.784;-96.802;2023-05-16T01:32:44;5.65;;;3.22;;
19808;SDS011;48538;32.784;-96.802;2023-05-16T01:35:11;6.22;;;3.25;;
19808;SDS011;48538;32.784;-96.802;2023-05-16T01:37:47;6.25;;;3.38;;
19808;SDS011;48538;32.784;-96.802;2023-05-16T01:40:22;6.40;;;3.30;;
19808;SDS011;48538;32.784;-96.802;2023-05-16T01:42:55;4.35;;;2.92;;
19808;SDS011;48538;32.784;-96.802;2023-05-16T01:45:26;6.53;;;3.00;;
19808;SDS011;48538;32.784;-96.802;2023-05-16T01:47:59;4.25;;;2.90;;
19808;SDS011;48538;32.784;-96.802;2023-05-16T01:50:33;6.47;;;2.90;;
19808;SDS011;48538;32.784;-96.802;2023-05-16T01:53:07;4.85;;;2.65;;
19808;SDS011;48538;32.784;-96.802;2023-05-16T01:55:41;4.55;;;3.03;;
19808;SDS011;48538;32.784;-96.802;2023-05-16T01:58:15;3.63;;;2.83;;
19808;SDS011;48538;32.784;-96.802;2023-05-16T02:00:44;4.47;;;3.20;;
19808;SDS011;48538;32.784;-96.802;2023-05-16T02:03:11;5.20;;;3.00;;
19808;SDS011;48538;32.784;-96.802;2023-05-16T02:05:37;4.63;;;2.75;;
19808;SDS011;48538;32.784;-96.802;2023-05-16T02:08:04;3.45;;;2.85;;
19808;SDS011;48538;32.784;-96.802;2023-05-16T02:10:30;5.22;;;2.90;;
19808;SDS011;48538;32.784;-96.802;2023-05-16T02:12:57;3.38;;;2.80;;
19808;SDS011;48538;32.784;-96.802;2023-05-16T02:15:23;3.95;;;2.92;;
19808;SDS011;48538;32.784;-96.802;2023-05-16T02:17:49;4.38;;;3.03;;
19808;SDS011;48538;32.784;-96.802;2023-05-16T02:20:16;5.38;;;3.38;;
19808;SDS011;48538;32.784;-96.802;2023-05-16T02:22:42;4.90;;;2.92;;
19808;SDS011;48538;32.784;-96.802;2023-05-16T02:25:11;5.40;;;2.97;;
19808;SDS011;48538;32.784;-96.802;2023-05-16T02:27:38;3.90;;;2.90;;
19808;SDS011;48538;32.784;-96.802;2023-05-16T02:30:05;4.93;;;3.33;;
19808;SDS011;48538;32.784;-96.802;2023-05-16T02:32:32;6.95;;;3.28;;
19808;SDS011;48538;32.784;-96.802;2023-05-16T02:34:59;4.80;;;2.92;;
19808;SDS011;48538;32.784;-96.802;2023-05-16T02:37:25;7.78;;;3.22;;
19808;SDS011;48538;32.784;-96.802;2023-05-16T02:39:51;4.43;;;2.90;;
19808;SDS011;48538;32.784;-96.802;2023-05-16T02:42:17;4.95;;;3.10;;
19808;SDS011;48538;32.784;-96.802;2023-05-16T02:44:44;4.35;;;3.13;;
19808;SDS011;48538;32.784;-96.802;2023-05-16T02:47:10;7.13;;;3.50;;
19808;SDS011;48538;32.784;-96.802;2023-05-16T02:49:36;6.80;;;3.30;;
19808;SDS011;48538;32.784;-96.802;2023-05-16T02:52:03;9.30;;;3.22;;
19808;SDS011;48538;32.784;-96.802;2023-05-16T02:54:29;7.63;;;3.83;;
19808;SDS011;48538;32.784;-96.802;2023-05-16T02:56:55;6.43;;;3.42;;
19808;SDS011;48538;32.784;-96.802;2023-05-16T02:59:22;7.13;;;3.55;;
19808;SDS011;48538;32.784;-96.802;2023-05-16T03:01:48;10.70;;;3.78;;
19808;SDS011;48538;32.784;-96.802;2023-05-16T03:04:14;6.50;;;2.97;;
19808;SDS011;48538;32.784;-96.802;2023-05-16T03:06:40;5.78;;;3.45;;
19808;SDS011;48538;32.784;-96.802;2023-05-16T03:09:07;4.93;;;3.00;;
19808;SDS011;48538;32.784;-96.802;2023-05-16T03:11:33;5.93;;;3.22;;
19808;SDS011;48538;32.784;-96.802;2023-05-16T03:13:59;5.00;;;2.80;;
19808;SDS011;48538;32.784;-96.802;2023-05-16T03:16:26;4.57;;;3.10;;
19808;SDS011;48538;32.784;-96.802;2023-05-16T03:18:52;4.43;;;3.33;;
19808;SDS011;48538;32.784;-96.802;2023-05-16T03:21:19;3.95;;;2.97;;
19808;SDS011;48538;32.784;-96.802;2023-05-16T03:23:45;4.88;;;3.40;;
19808;SDS011;48538;32.784;-96.802;2023-05-16T03:26:11;5.07;;;3.17;;
19808;SDS011;48538;32.784;-96.802;2023-05-16T03:28:38;6.43;;;3.55;;
19808;SDS011;48538;32.784;-96.802;2023-05-16T03:31:04;5.78;;;3.72;;
19808;SDS011;48538;32.784;-96.802;2023-05-16T03:33:30;6.05;;;3.38;;
19808;SDS011;48538;32.784;-96.802;2023-05-16T03:35:56;4.05;;;2.97;;
19808;SDS011;48538;32.784;-96.802;2023-05-16T03:38:23;5.20;;;3.70;;
19808;SDS011;48538;32.784;-96.802;2023-05-16T03:40:49;5.97;;;3.38;;
19808;SDS011;48538;32.784;-96.802;2023-05-16T03:43:15;3.60;;;2.80;;
19808;SDS011;48538;32.784;-96.802;2023-05-16T03:45:42;7.22;;;3.25;;
19808;SDS011;48538;32.784;-96.802;2023-05-16T03:48:08;4.10;;;2.88;;
19808;SDS011;48538;32.784;-96.802;2023-05-16T03:50:34;7.70;;;3.10;;
19808;SDS011;48538;32.784;-96.802;2023-05-16T03:53:01;4.78;;;3.03;;
19808;SDS011;48538;32.784;-96.802;2023-05-16T03:55:29;4.35;;;3.42;;
19808;SDS011;48538;32.784;-96.802;2023-05-16T03:57:55;4.55;;;3.30;;
19808;SDS011;48538;32.784;-96.802;2023-05-16T04:00:21;4.20;;;3.30;;
19808;SDS011;48538;32.784;-96.802;2023-05-16T04:02:48;5.45;;;3.08;;
19808;SDS011;48538;32.784;-96.802;2023-05-16T04:05:14;6.63;;;3.40;;
19808;SDS011;48538;32.784;-96.802;2023-05-16T04:07:40;4.20;;;3.10;;
19808;SDS011;48538;32.784;-96.802;2023-05-16T04:10:07;3.45;;;2.83;;
19808;SDS011;48538;32.784;-96.802;2023-05-16T04:12:34;4.00;;;2.80;;
19808;SDS011;48538;32.784;-96.802;2023-05-16T04:15:01;6.55;;;3.17;;
19808;SDS011;48538;32.784;-96.802;2023-05-16T04:17:28;7.60;;;3.08;;
19808;SDS011;48538;32.784;-96.802;2023-05-16T04:19:55;4.63;;;2.70;;
19808;SDS011;48538;32.784;-96.802;2023-05-16T04:22:22;4.05;;;2.92;;
19808;SDS011;48538;32.784;-96.802;2023-05-16T04:24:48;4.60;;;3.10;;
19808;SDS011;48538;32.784;-96.802;2023-05-16T04:27:15;6.68;;;3.72;;
19808;SDS011;48538;32.784;-96.802;2023-05-16T04:29:41;3.95;;;3.25;;
19808;SDS011;48538;32.784;-96.802;2023-05-16T04:32:08;8.85;;;3.53;;
19808;SDS011;48538;32.784;-96.802;2023-05-16T04:34:35;6.82;;;3.42;;
19808;SDS011;48538;32.784;-96.802;2023-05-16T04:37:02;6.25;;;3.70;;
19808;SDS011;48538;32.784;-96.802;2023-05-16T04:39:30;6.15;;;3.28;;
19808;SDS011;48538;32.784;-96.802;2023-05-16T04:41:56;3.90;;;2.70;;
19808;SDS011;48538;32.784;-96.802;2023-05-16T04:44:26;5.18;;;2.78;;
19808;SDS011;48538;32.784;-96.802;2023-05-16T04:46:52;4.43;;;3.22;;
19808;SDS011;48538;32.784;-96.802;2023-05-16T04:49:19;5.90;;;3.30;;
19808;SDS011;48538;32.784;-96.802;2023-05-16T04:51:46;4.63;;;3.15;;
19808;SDS011;48538;32.784;-96.802;2023-05-16T04:54:13;4.72;;;3.20;;
19808;SDS011;48538;32.784;-96.802;2023-05-16T04:56:39;4.97;;;3.05;;
19808;SDS011;48538;32.784;-96.802;2023-05-16T04:59:06;6.03;;;3.25;;
19808;SDS011;48538;32.784;-96.802;2023-05-16T05:01:32;3.72;;;3.17;;
19808;SDS011;48538;32.784;-96.802;2023-05-16T05:03:58;4.85;;;3.08;;
19808;SDS011;48538;32.784;-96.802;2023-05-16T05:06:24;5.07;;;3.30;;
19808;SDS011;48538;32.784;-96.802;2023-05-16T05:08:51;5.95;;;3.03;;
19808;SDS011;48538;32.784;-96.802;2023-05-16T05:11:18;4.45;;;2.97;;
19808;SDS011;48538;32.784;-96.802;2023-05-16T05:13:45;6.05;;;3.15;;
19808;SDS011;48538;32.784;-96.802;2023-05-16T05:16:11;6.03;;;3.72;;
19808;SDS011;48538;32.784;-96.802;2023-05-16T05:18:38;3.63;;;2.83;;
19808;SDS011;48538;32.784;-96.802;2023-05-16T05:21:04;4.50;;;3.35;;
19808;SDS011;48538;32.784;-96.802;2023-05-16T05:23:30;4.15;;;3.20;;
19808;SDS011;48538;32.784;-96.802;2023-05-16T05:25:59;4.15;;;2.90;;
19808;SDS011;48538;32.784;-96.802;2023-05-16T05:28:26;6.22;;;3.28;;
19808;SDS011;48538;32.784;-96.802;2023-05-16T05:30:52;3.85;;;2.97;;
19808;SDS011;48538;32.784;-96.802;2023-05-16T05:33:18;7.78;;;3.20;;
19808;SDS011;48538;32.784;-96.802;2023-05-16T05:35:50;5.45;;;3.42;;
19808;SDS011;48538;32.784;-96.802;2023-05-16T05:38:18;3.63;;;3.13;;
19808;SDS011;48538;32.784;-96.802;2023-05-16T05:40:44;5.72;;;3.20;;
19808;SDS011;48538;32.784;-96.802;2023-05-16T05:43:10;5.05;;;3.28;;
19808;SDS011;48538;32.784;-96.802;2023-05-16T05:45:37;3.28;;;2.97;;
19808;SDS011;48538;32.784;-96.802;2023-05-16T05:48:03;8.40;;;3.50;;
19808;SDS011;48538;32.784;-96.802;2023-05-16T05:50:30;4.88;;;3.05;;
19808;SDS011;48538;32.784;-96.802;2023-05-16T05:52:56;3.67;;;2.72;;
19808;SDS011;48538;32.784;-96.802;2023-05-16T05:55:22;3.95;;;3.38;;
19808;SDS011;48538;32.784;-96.802;2023-05-16T05:57:49;5.93;;;3.78;;
19808;SDS011;48538;32.784;-96.802;2023-05-16T06:00:15;6.75;;;3.65;;
19808;SDS011;48538;32.784;-96.802;2023-05-16T06:02:41;4.50;;;3.10;;
19808;SDS011;48538;32.784;-96.802;2023-05-16T06:05:08;3.65;;;3.10;;
19808;SDS011;48538;32.784;-96.802;2023-05-16T06:07:34;5.32;;;3.53;;
19808;SDS011;48538;32.784;-96.802;2023-05-16T06:10:01;5.68;;;3.30;;
19808;SDS011;48538;32.784;-96.802;2023-05-16T06:12:29;5.20;;;3.28;;
19808;SDS011;48538;32.784;-96.802;2023-05-16T06:14:56;4.68;;;3.38;;
19808;SDS011;48538;32.784;-96.802;2023-05-16T06:17:22;4.80;;;3.05;;
19808;SDS011;48538;32.784;-96.802;2023-05-16T06:19:48;6.22;;;3.63;;
19808;SDS011;48538;32.784;-96.802;2023-05-16T06:22:14;5.22;;;3.60;;
19808;SDS011;48538;32.784;-96.802;2023-05-16T06:24:41;5.03;;;3.45;;
19808;SDS011;48538;32.784;-96.802;2023-05-16T06:27:07;3.92;;;3.28;;
19808;SDS011;48538;32.784;-96.802;2023-05-16T06:29:33;4.43;;;3.10;;
19808;SDS011;48538;32.784;-96.802;2023-05-16T06:32:00;5.32;;;3.25;;
19808;SDS011;48538;32.784;-96.802;2023-05-16T06:34:26;6.05;;;3.47;;
19808;SDS011;48538;32.784;-96.802;2023-05-16T06:36:53;13.82;;;3.15;;
19808;SDS011;48538;32.784;-96.802;2023-05-16T06:39:19;4.45;;;3.65;;
19808;SDS011;48538;32.784;-96.802;2023-05-16T06:41:46;6.88;;;3.60;;
19808;SDS011;48538;32.784;-96.802;2023-05-16T06:44:12;4.88;;;3.15;;
19808;SDS011;48538;32.784;-96.802;2023-05-16T06:46:38;3.60;;;3.10;;
19808;SDS011;48538;32.784;-96.802;2023-05-16T06:49:05;5.18;;;3.50;;
19808;SDS011;48538;32.784;-96.802;2023-05-16T06:51:31;4.43;;;3.03;;
19808;SDS011;48538;32.784;-96.802;2023-05-16T06:53:57;5.20;;;3.45;;
19808;SDS011;48538;32.784;-96.802;2023-05-16T06:56:24;5.60;;;3.42;;
19808;SDS011;48538;32.784;-96.802;2023-05-16T06:58:50;4.07;;;3.45;;
19808;SDS011;48538;32.784;-96.802;2023-05-16T07:01:16;4.25;;;3.20;;
19808;SDS011;48538;32.784;-96.802;2023-05-16T07:03:43;5.95;;;3.42;;
19808;SDS011;48538;32.784;-96.802;2023-05-16T07:06:09;5.72;;;3.42;;
19808;SDS011;48538;32.784;-96.802;2023-05-16T07:08:35;7.30;;;3.50;;
19808;SDS011;48538;32.784;-96.802;2023-05-16T07:11:02;3.75;;;3.22;;
19808;SDS011;48538;32.784;-96.802;2023-05-16T07:13:28;6.15;;;3.55;;
19808;SDS011;48538;32.784;-96.802;2023-05-16T07:15:55;8.25;;;3.80;;
19808;SDS011;48538;32.784;-96.802;2023-05-16T07:18:21;8.20;;;3.42;;
19808;SDS011;48538;32.784;-96.802;2023-05-16T07:20:47;4.10;;;3.58;;
19808;SDS011;48538;32.784;-96.802;2023-05-16T07:23:14;4.47;;;3.40;;
19808;SDS011;48538;32.784;-96.802;2023-05-16T07:25:40;4.65;;;3.70;;
19808;SDS011;48538;32.784;-96.802;2023-05-16T07:28:06;4.60;;;3.25;;
19808;SDS011;48538;32.784;-96.802;2023-05-16T07:30:33;9.90;;;3.72;;
19808;SDS011;48538;32.784;-96.802;2023-05-16T07:32:59;5.28;;;3.30;;
19808;SDS011;48538;32.784;-96.802;2023-05-16T07:35:25;6.10;;;3.88;;
19808;SDS011;48538;32.784;-96.802;2023-05-16T07:37:51;4.38;;;3.30;;
19808;SDS011;48538;32.784;-96.802;2023-05-16T07:40:18;6.72;;;3.50;;
19808;SDS011;48538;32.784;-96.802;2023-05-16T07:42:50;7.93;;;4.28;;
19808;SDS011;48538;32.784;-96.802;2023-05-16T07:45:16;6.47;;;3.88;;
19808;SDS011;48538;32.784;-96.802;2023-05-16T07:47:42;7.78;;;4.05;;
19808;SDS011;48538;32.784;-96.802;2023-05-16T07:50:11;5.38;;;3.28;;
19808;SDS011;48538;32.784;-96.802;2023-05-16T07:52:37;4.80;;;3.17;;
19808;SDS011;48538;32.784;-96.802;2023-05-16T07:55:04;9.73;;;3.78;;
19808;SDS011;48538;32.784;-96.802;2023-05-16T07:57:31;6.05;;;3.80;;
19808;SDS011;48538;32.784;-96.802;2023-05-16T07:59:57;5.32;;;3.72;;
19808;SDS011;48538;32.784;-96.802;2023-05-16T08:02:24;6.18;;;3.78;;
19808;SDS011;48538;32.784;-96.802;2023-05-16T08:04:54;7.07;;;3.78;;
19808;SDS011;48538;32.784;-96.802;2023-05-16T08:07:24;5.65;;;3.92;;
19808;SDS011;48538;32.784;-96.802;2023-05-16T08:09:50;6.53;;;3.70;;
19808;SDS011;48538;32.784;-96.802;2023-05-16T08:12:17;7.47;;;3.63;;
19808;SDS011;48538;32.784;-96.802;2023-05-16T08:14:43;6.78;;;3.67;;
19808;SDS011;48538;32.784;-96.802;2023-05-16T08:17:09;6.45;;;4.00;;
19808;SDS011;48538;32.784;-96.802;2023-05-16T08:19:35;6.78;;;3.40;;
19808;SDS011;48538;32.784;-96.802;2023-05-16T08:22:02;7.25;;;4.00;;
19808;SDS011;48538;32.784;-96.802;2023-05-16T08:24:28;7.68;;;3.55;;
19808;SDS011;48538;32.784;-96.802;2023-05-16T08:26:54;6.70;;;3.85;;
19808;SDS011;48538;32.784;-96.802;2023-05-16T08:29:21;5.15;;;3.65;;
19808;SDS011;48538;32.784;-96.802;2023-05-16T08:31:47;7.35;;;3.85;;
19808;SDS011;48538;32.784;-96.802;2023-05-16T08:34:14;5.05;;;3.72;;
19808;SDS011;48538;32.784;-96.802;2023-05-16T08:36:40;6.25;;;3.55;;
19808;SDS011;48538;32.784;-96.802;2023-05-16T08:39:06;9.40;;;3.67;;
19808;SDS011;48538;32.784;-96.802;2023-05-16T08:41:35;7.65;;;3.92;;
19808;SDS011;48538;32.784;-96.802;2023-05-16T08:44:02;5.40;;;4.05;;
19808;SDS011;48538;32.784;-96.802;2023-05-16T08:46:29;6.82;;;4.25;;
19808;SDS011;48538;32.784;-96.802;2023-05-16T08:48:58;6.65;;;4.00;;
19808;SDS011;48538;32.784;-96.802;2023-05-16T08:51:25;7.80;;;4.32;;
19808;SDS011;48538;32.784;-96.802;2023-05-16T08:53:58;6.57;;;4.10;;
19808;SDS011;48538;32.784;-96.802;2023-05-16T08:56:29;5.65;;;4.15;;
19808;SDS011;48538;32.784;-96.802;2023-05-16T08:58:58;6.47;;;4.20;;
19808;SDS011;48538;32.784;-96.802;2023-05-16T09:01:25;5.88;;;4.25;;
19808;SDS011;48538;32.784;-96.802;2023-05-16T09:03:51;5.88;;;4.40;;
19808;SDS011;48538;32.784;-96.802;2023-05-16T09:06:19;6.05;;;4.47;;
19808;SDS011;48538;32.784;-96.802;2023-05-16T09:08:45;8.88;;;5.53;;
19808;SDS011;48538;32.784;-96.802;2023-05-16T09:11:12;7.55;;;4.60;;
19808;SDS011;48538;32.784;-96.802;2023-05-16T09:13:38;7.82;;;5.20;;
19808;SDS011;48538;32.784;-96.802;2023-05-16T09:16:15;6.15;;;4.57;;
19808;SDS011;48538;32.784;-96.802;2023-05-16T09:18:43;5.10;;;4.60;;
19808;SDS011;48538;32.784;-96.802;2023-05-16T09:21:11;5.22;;;4.72;;
19808;SDS011;48538;32.784;-96.802;2023-05-16T09:23:41;5.63;;;4.90;;
19808;SDS011;48538;32.784;-96.802;2023-05-16T09:26:08;6.05;;;4.25;;
19808;SDS011;48538;32.784;-96.802;2023-05-16T09:28:38;5.70;;;4.47;;
19808;SDS011;48538;32.784;-96.802;2023-05-16T09:31:26;6.00;;;4.43;;
19808;SDS011;48538;32.784;-96.802;2023-05-16T09:33:52;9.30;;;4.78;;
19808;SDS011;48538;32.784;-96.802;2023-05-16T09:36:20;5.82;;;4.60;;
19808;SDS011;48538;32.784;-96.802;2023-05-16T09:38:47;6.07;;;4.32;;
19808;SDS011;48538;32.784;-96.802;2023-05-16T09:41:15;7.40;;;5.20;;
19808;SDS011;48538;32.784;-96.802;2023-05-16T09:43:42;6.38;;;4.80;;
19808;SDS011;48538;32.784;-96.802;2023-05-16T09:46:14;8.27;;;5.57;;
19808;SDS011;48538;32.784;-96.802;2023-05-16T09:48:45;6.47;;;4.95;;
19808;SDS011;48538;32.784;-96.802;2023-05-16T09:51:12;6.25;;;4.93;;
19808;SDS011;48538;32.784;-96.802;2023-05-16T09:53:39;7.22;;;5.20;;
19808;SDS011;48538;32.784;-96.802;2023-05-16T09:56:07;9.68;;;5.18;;
19808;SDS011;48538;32.784;-96.802;2023-05-16T09:58:36;6.43;;;4.85;;
19808;SDS011;48538;32.784;-96.802;2023-05-16T10:01:04;9.38;;;5.65;;
19808;SDS011;48538;32.784;-96.802;2023-05-16T10:03:33;8.60;;;5.72;;
19808;SDS011;48538;32.784;-96.802;2023-05-16T10:06:00;8.95;;;5.70;;
19808;SDS011;48538;32.784;-96.802;2023-05-16T10:08:27;8.38;;;6.25;;
19808;SDS011;48538;32.784;-96.802;2023-05-16T10:11:00;8.02;;;6.30;;
19808;SDS011;48538;32.784;-96.802;2023-05-16T10:13:29;9.45;;;6.13;;
19808;SDS011;48538;32.784;-96.802;2023-05-16T10:15:57;8.77;;;6.22;;
19808;SDS011;48538;32.784;-96.802;2023-05-16T10:18:31;8.77;;;5.90;;
19808;SDS011;48538;32.784;-96.802;2023-05-16T10:21:03;8.88;;;6.20;;
19808;SDS011;48538;32.784;-96.802;2023-05-16T10:23:35;10.20;;;6.70;;
19808;SDS011;48538;32.784;-96.802;2023-05-16T10:26:05;9.70;;;6.82;;
19808;SDS011;48538;32.784;-96.802;2023-05-16T10:28:33;7.28;;;6.10;;
19808;SDS011;48538;32.784;-96.802;2023-05-16T10:31:00;8.20;;;6.25;;
19808;SDS011;48538;32.784;-96.802;2023-05-16T10:33:27;7.60;;;6.40;;
19808;SDS011;48538;32.784;-96.802;2023-05-16T10:35:54;7.22;;;5.93;;
19808;SDS011;48538;32.784;-96.802;2023-05-16T10:38:21;9.20;;;6.53;;
19808;SDS011;48538;32.784;-96.802;2023-05-16T10:40:48;11.73;;;6.43;;
19808;SDS011;48538;32.784;-96.802;2023-05-16T10:43:26;10.88;;;7.82;;
19808;SDS011;48538;32.784;-96.802;2023-05-16T10:45:58;12.10;;;7.95;;
19808;SDS011;48538;32.784;-96.802;2023-05-16T10:48:29;12.27;;;7.75;;
19808;SDS011;48538;32.784;-96.802;2023-05-16T10:50:57;9.63;;;7.50;;
19808;SDS011;48538;32.784;-96.802;2023-05-16T10:53:30;8.43;;;7.15;;
19808;SDS011;48538;32.784;-96.802;2023-05-16T10:58:38;10.93;;;7.30;;
19808;SDS011;48538;32.784;-96.802;2023-05-16T11:01:25;9.43;;;7.18;;
19808;SDS011;48538;32.784;-96.802;2023-05-16T11:06:25;12.18;;;7.60;;
19808;SDS011;48538;32.784;-96.802;2023-05-16T11:08:57;15.00;;;7.53;;
19808;SDS011;48538;32.784;-96.802;2023-05-16T11:14:21;11.63;;;7.85;;
19808;SDS011;48538;32.784;-96.802;2023-05-16T11:16:51;11.70;;;7.90;;
19808;SDS011;48538;32.784;-96.802;2023-05-16T11:19:39;11.93;;;7.35;;
19808;SDS011;48538;32.784;-96.802;2023-05-16T11:25:08;9.65;;;7.28;;
19808;SDS011;48538;32.784;-96.802;2023-05-16T11:27:56;9.27;;;7.47;;
19808;SDS011;48538;32.784;-96.802;2023-05-16T11:30:21;9.25;;;7.32;;
19808;SDS011;48538;32.784;-96.802;2023-05-16T11:32:48;10.38;;;7.05;;
19808;SDS011;48538;32.784;-96.802;2023-05-16T11:35:15;9.40;;;7.60;;
19808;SDS011;48538;32.784;-96.802;2023-05-16T11:37:43;9.18;;;6.78;;
19808;SDS011;48538;32.784;-96.802;2023-05-16T11:40:11;10.40;;;7.72;;
19808;SDS011;48538;32.784;-96.802;2023-05-16T11:42:42;9.65;;;6.95;;
19808;SDS011;48538;32.784;-96.802;2023-05-16T11:45:10;10.48;;;7.95;;
19808;SDS011;48538;32.784;-96.802;2023-05-16T11:47:40;14.20;;;7.82;;
19808;SDS011;48538;32.784;-96.802;2023-05-16T11:50:23;12.70;;;7.75;;
19808;SDS011;48538;32.784;-96.802;2023-05-16T11:52:50;12.52;;;7.65;;
19808;SDS011;48538;32.784;-96.802;2023-05-16T11:55:19;9.85;;;7.45;;
19808;SDS011;48538;32.784;-96.802;2023-05-16T11:57:48;10.35;;;7.45;;
19808;SDS011;48538;32.784;-96.802;2023-05-16T12:00:19;9.73;;;7.25;;
19808;SDS011;48538;32.784;-96.802;2023-05-16T12:02:48;9.13;;;7.20;;
19808;SDS011;48538;32.784;-96.802;2023-05-16T12:05:15;9.38;;;7.18;;
19808;SDS011;48538;32.784;-96.802;2023-05-16T12:07:44;10.30;;;7.70;;
19808;SDS011;48538;32.784;-96.802;2023-05-16T12:10:12;9.35;;;7.25;;
19808;SDS011;48538;32.784;-96.802;2023-05-16T12:12:41;11.20;;;8.18;;
19808;SDS011;48538;32.784;-96.802;2023-05-16T12:15:10;12.77;;;9.02;;
19808;SDS011;48538;32.784;-96.802;2023-05-16T12:17:37;11.25;;;8.70;;
19808;SDS011;48538;32.784;-96.802;2023-05-16T12:20:05;11.27;;;8.68;;
19808;SDS011;48538;32.784;-96.802;2023-05-16T12:22:42;11.85;;;8.63;;
19808;SDS011;48538;32.784;-96.802;2023-05-16T12:25:28;11.02;;;8.52;;
19808;SDS011;48538;32.784;-96.802;2023-05-16T12:27:57;11.52;;;8.65;;
19808;SDS011;48538;32.784;-96.802;2023-05-16T12:30:25;11.43;;;8.90;;
19808;SDS011;48538;32.784;-96.802;2023-05-16T12:33:00;17.55;;;10.18;;
19808;SDS011;48538;32.784;-96.802;2023-05-16T12:35:31;15.00;;;9.10;;
19808;SDS011;48538;32.784;-96.802;2023-05-16T12:37:58;22.63;;;9.50;;
19808;SDS011;48538;32.784;-96.802;2023-05-16T12:40:28;15.65;;;9.48;;
19808;SDS011;48538;32.784;-96.802;2023-05-16T12:42:55;15.65;;;8.75;;
19808;SDS011;48538;32.784;-96.802;2023-05-16T12:45:21;10.32;;;8.23;;
19808;SDS011;48538;32.784;-96.802;2023-05-16T12:47:48;12.00;;;8.02;;
19808;SDS011;48538;32.784;-96.802;2023-05-16T12:50:15;14.57;;;8.55;;
19808;SDS011;48538;32.784;-96.802;2023-05-16T12:55:21;11.05;;;8.15;;
19808;SDS011;48538;32.784;-96.802;2023-05-16T12:57:47;9.77;;;6.95;;
19808;SDS011;48538;32.784;-96.802;2023-05-16T13:00:17;10.30;;;7.55;;
19808;SDS011;48538;32.784;-96.802;2023-05-16T13:02:44;8.60;;;6.57;;
19808;SDS011;48538;32.784;-96.802;2023-05-16T13:05:11;8.70;;;6.65;;
19808;SDS011;48538;32.784;-96.802;2023-05-16T13:07:38;9.77;;;7.38;;
19808;SDS011;48538;32.784;-96.802;2023-05-16T13:10:08;10.30;;;6.60;;
19808;SDS011;48538;32.784;-96.802;2023-05-16T13:12:36;8.00;;;5.38;;
19808;SDS011;48538;32.784;-96.802;2023-05-16T13:15:03;5.35;;;4.63;;
19808;SDS011;48538;32.784;-96.802;2023-05-16T13:17:34;6.80;;;3.92;;
19808;SDS011;48538;32.784;-96.802;2023-05-16T13:20:02;4.55;;;3.85;;
19808;SDS011;48538;32.784;-96.802;2023-05-16T13:22:47;8.18;;;4.47;;
19808;SDS011;48538;32.784;-96.802;2023-05-16T13:25:14;3.83;;;3.42;;
19808;SDS011;48538;32.784;-96.802;2023-05-16T13:27:40;5.05;;;3.97;;
19808;SDS011;48538;32.784;-96.802;2023-05-16T13:30:06;4.30;;;3.65;;
19808;SDS011;48538;32.784;-96.802;2023-05-16T13:32:33;5.13;;;3.58;;
19808;SDS011;48538;32.784;-96.802;2023-05-16T13:34:59;5.00;;;3.30;;
19808;SDS011;48538;32.784;-96.802;2023-05-16T13:37:26;3.70;;;3.30;;
19808;SDS011;48538;32.784;-96.802;2023-05-16T13:39:52;3.60;;;2.90;;
19808;SDS011;48538;32.784;-96.802;2023-05-16T13:42:21;3.60;;;3.28;;
19808;SDS011;48538;32.784;-96.802;2023-05-16T13:44:48;4.93;;;3.30;;
19808;SDS011;48538;32.784;-96.802;2023-05-16T13:47:19;3.90;;;3.03;;
19808;SDS011;48538;32.784;-96.802;2023-05-16T13:49:45;4.93;;;3.30;;
19808;SDS011;48538;32.784;-96.802;2023-05-16T13:52:12;3.95;;;3.28;;
19808;SDS011;48538;32.784;-96.802;2023-05-16T13:54:39;7.90;;;3.78;;
19808;SDS011;48538;32.784;-96.802;2023-05-16T13:57:05;3.75;;;3.25;;
19808;SDS011;48538;32.784;-96.802;2023-05-16T13:59:32;5.20;;;3.40;;
19808;SDS011;48538;32.784;-96.802;2023-05-16T14:01:58;4.95;;;3.47;;
19808;SDS011;48538;32.784;-96.802;2023-05-16T14:04:25;4.22;;;2.90;;
19808;SDS011;48538;32.784;-96.802;2023-05-16T14:06:51;4.22;;;3.08;;
19808;SDS011;48538;32.784;-96.802;2023-05-16T14:09:18;6.30;;;4.00;;
19808;SDS011;48538;32.784;-96.802;2023-05-16T14:11:45;6.63;;;3.53;;
19808;SDS011;48538;32.784;-96.802;2023-05-16T14:14:11;4.68;;;3.45;;
19808;SDS011;48538;32.784;-96.802;2023-05-16T14:16:37;8.55;;;3.70;;
19808;SDS011;48538;32.784;-96.802;2023-05-16T14:19:09;5.40;;;3.42;;
19808;SDS011;48538;32.784;-96.802;2023-05-16T14:21:36;7.25;;;2.95;;
19808;SDS011;48538;32.784;-96.802;2023-05-16T14:24:02;3.95;;;3.13;;
19808;SDS011;48538;32.784;-96.802;2023-05-16T14:26:28;5.25;;;3.28;;
19808;SDS011;48538;32.784;-96.802;2023-05-16T14:28:56;4.93;;;3.33;;
19808;SDS011;48538;32.784;-96.802;2023-05-16T14:31:22;4.65;;;3.40;;
19808;SDS011;48538;32.784;-96.802;2023-05-16T14:33:49;4.88;;;2.97;;
19808;SDS011;48538;32.784;-96.802;2023-05-16T14:36:15;4.43;;;3.47;;
19808;SDS011;48538;32.784;-96.802;2023-05-16T14:38:41;6.40;;;3.63;;
19808;SDS011;48538;32.784;-96.802;2023-05-16T14:41:08;4.30;;;3.90;;
19808;SDS011;48538;32.784;-96.802;2023-05-16T14:43:34;4.10;;;3.70;;
19808;SDS011;48538;32.784;-96.802;2023-05-16T14:46:02;5.80;;;3.55;;